sensor_id;sensor_type;location;lat;lon;timestamp;temperature;humidity
45339;DHT22;31071;51.478;5.710;2022-10-16T00:01:16;13.40;99.90
45339;DHT22;31071;51.478;5.710;2022-10-16T00:03:43;13.40;99.90
45339;DHT22;31071;51.478;5.710;2022-10-16T00:06:10;13.40;99.90
45339;DHT22;31071;51.478;5.710;2022-10-16T00:08:48;13.40;99.90
45339;DHT22;31071;51.478;5.710;2022-10-16T00:11:22;13.40;99.90
45339;DHT22;31071;51.478;5.710;2022-10-16T00:13:49;13.40;99.90
45339;DHT22;31071;51.478;5.710;2022-10-16T00:16:16;13.40;99.90
45339;DHT22;31071;51.478;5.710;2022-10-16T00:18:42;13.40;99.90
45339;DHT22;31071;51.478;5.710;2022-10-16T00:21:14;13.40;99.90
45339;DHT22;31071;51.478;5.710;2022-10-16T00:23:40;13.40;99.90
45339;DHT22;31071;51.478;5.710;2022-10-16T00:26:09;13.40;99.90
45339;DHT22;31071;51.478;5.710;2022-10-16T00:28:35;13.40;99.90
45339;DHT22;31071;51.478;5.710;2022-10-16T00:31:09;13.40;99.90
45339;DHT22;31071;51.478;5.710;2022-10-16T00:33:36;13.40;99.90
45339;DHT22;31071;51.478;5.710;2022-10-16T00:36:03;13.40;99.90
45339;DHT22;31071;51.478;5.710;2022-10-16T00:38:29;13.40;99.90
45339;DHT22;31071;51.478;5.710;2022-10-16T00:40:55;13.30;99.90
45339;DHT22;31071;51.478;5.710;2022-10-16T00:43:41;13.20;99.90
45339;DHT22;31071;51.478;5.710;2022-10-16T00:48:59;13.30;99.90
45339;DHT22;31071;51.478;5.710;2022-10-16T00:51:33;13.20;99.90
45339;DHT22;31071;51.478;5.710;2022-10-16T00:53:59;13.20;99.90
45339;DHT22;31071;51.478;5.710;2022-10-16T00:56:25;13.20;99.90
45339;DHT22;31071;51.478;5.710;2022-10-16T00:58:51;13.20;99.90
45339;DHT22;31071;51.478;5.710;2022-10-16T01:01:16;13.20;99.90
45339;DHT22;31071;51.478;5.710;2022-10-16T01:03:42;13.20;99.90
45339;DHT22;31071;51.478;5.710;2022-10-16T01:06:22;13.10;99.90
45339;DHT22;31071;51.478;5.710;2022-10-16T01:09:16;13.10;99.90
45339;DHT22;31071;51.478;5.710;2022-10-16T01:12:01;13.10;99.90
45339;DHT22;31071;51.478;5.710;2022-10-16T01:14:45;13.10;99.90
45339;DHT22;31071;51.478;5.710;2022-10-16T01:17:35;13.10;99.90
45339;DHT22;31071;51.478;5.710;2022-10-16T01:20:07;13.10;99.90
45339;DHT22;31071;51.478;5.710;2022-10-16T01:22:57;13.00;99.90
45339;DHT22;31071;51.478;5.710;2022-10-16T01:28:36;13.00;99.90
45339;DHT22;31071;51.478;5.710;2022-10-16T01:31:04;12.90;99.90
45339;DHT22;31071;51.478;5.710;2022-10-16T01:33:55;12.90;99.90
45339;DHT22;31071;51.478;5.710;2022-10-16T01:36:26;12.90;99.90
45339;DHT22;31071;51.478;5.710;2022-10-16T01:38:56;12.80;99.90
45339;DHT22;31071;51.478;5.710;2022-10-16T01:41:31;12.80;99.90
45339;DHT22;31071;51.478;5.710;2022-10-16T01:44:05;12.80;99.90
45339;DHT22;31071;51.478;5.710;2022-10-16T01:46:35;12.80;99.90
45339;DHT22;31071;51.478;5.710;2022-10-16T01:49:02;12.80;99.90
45339;DHT22;31071;51.478;5.710;2022-10-16T01:51:29;12.80;99.90
45339;DHT22;31071;51.478;5.710;2022-10-16T01:53:58;12.80;99.90
45339;DHT22;31071;51.478;5.710;2022-10-16T01:56:25;12.80;99.90
45339;DHT22;31071;51.478;5.710;2022-10-16T01:59:18;12.80;99.90
45339;DHT22;31071;51.478;5.710;2022-10-16T02:01:48;12.80;99.90
45339;DHT22;31071;51.478;5.710;2022-10-16T02:04:29;12.80;99.90
45339;DHT22;31071;51.478;5.710;2022-10-16T02:06:56;12.80;99.90
45339;DHT22;31071;51.478;5.710;2022-10-16T02:09:22;12.80;99.90
45339;DHT22;31071;51.478;5.710;2022-10-16T02:11:48;12.80;99.90
45339;DHT22;31071;51.478;5.710;2022-10-16T02:14:15;12.80;99.90
45339;DHT22;31071;51.478;5.710;2022-10-16T02:16:43;12.90;99.90
45339;DHT22;31071;51.478;5.710;2022-10-16T02:19:09;12.90;99.90
45339;DHT22;31071;51.478;5.710;2022-10-16T02:21:58;12.90;99.90
45339;DHT22;31071;51.478;5.710;2022-10-16T02:24:47;12.90;99.90
45339;DHT22;31071;51.478;5.710;2022-10-16T02:27:23;12.90;99.90
45339;DHT22;31071;51.478;5.710;2022-10-16T02:29:54;12.80;99.90
45339;DHT22;31071;51.478;5.710;2022-10-16T02:32:24;12.80;99.90
45339;DHT22;31071;51.478;5.710;2022-10-16T02:34:54;12.80;99.90
45339;DHT22;31071;51.478;5.710;2022-10-16T02:37:20;12.80;99.90
45339;DHT22;31071;51.478;5.710;2022-10-16T02:39:45;12.70;99.90
45339;DHT22;31071;51.478;5.710;2022-10-16T02:42:12;12.80;99.90
45339;DHT22;31071;51.478;5.710;2022-10-16T02:44:38;12.70;99.90
45339;DHT22;31071;51.478;5.710;2022-10-16T02:47:03;12.60;99.90
45339;DHT22;31071;51.478;5.710;2022-10-16T02:49:29;12.70;99.90
45339;DHT22;31071;51.478;5.710;2022-10-16T02:51:54;12.70;99.90
45339;DHT22;31071;51.478;5.710;2022-10-16T02:54:20;12.70;99.90
45339;DHT22;31071;51.478;5.710;2022-10-16T02:56:45;12.70;99.90
45339;DHT22;31071;51.478;5.710;2022-10-16T02:59:11;12.60;99.90
45339;DHT22;31071;51.478;5.710;2022-10-16T03:01:36;12.60;99.90
45339;DHT22;31071;51.478;5.710;2022-10-16T03:04:02;12.60;99.90
45339;DHT22;31071;51.478;5.710;2022-10-16T03:06:28;12.60;99.90
45339;DHT22;31071;51.478;5.710;2022-10-16T03:08:53;12.50;99.90
45339;DHT22;31071;51.478;5.710;2022-10-16T03:11:19;12.50;99.90
45339;DHT22;31071;51.478;5.710;2022-10-16T03:13:44;12.50;99.90
45339;DHT22;31071;51.478;5.710;2022-10-16T03:16:10;12.50;99.90
45339;DHT22;31071;51.478;5.710;2022-10-16T03:18:35;12.50;99.90
45339;DHT22;31071;51.478;5.710;2022-10-16T03:21:01;12.60;99.90
45339;DHT22;31071;51.478;5.710;2022-10-16T03:23:29;12.60;99.90
45339;DHT22;31071;51.478;5.710;2022-10-16T03:25:55;12.60;99.90
45339;DHT22;31071;51.478;5.710;2022-10-16T03:28:21;12.60;99.90
45339;DHT22;31071;51.478;5.710;2022-10-16T03:30:46;12.60;99.90
45339;DHT22;31071;51.478;5.710;2022-10-16T03:33:12;12.60;99.90
45339;DHT22;31071;51.478;5.710;2022-10-16T03:35:37;12.60;99.90
45339;DHT22;31071;51.478;5.710;2022-10-16T03:38:03;12.60;99.90
45339;DHT22;31071;51.478;5.710;2022-10-16T03:40:29;12.60;99.90
45339;DHT22;31071;51.478;5.710;2022-10-16T03:42:54;12.60;99.90
45339;DHT22;31071;51.478;5.710;2022-10-16T03:45:23;12.60;99.90
45339;DHT22;31071;51.478;5.710;2022-10-16T03:47:48;12.60;99.90
45339;DHT22;31071;51.478;5.710;2022-10-16T03:50:14;12.70;99.90
45339;DHT22;31071;51.478;5.710;2022-10-16T03:52:39;12.70;99.90
45339;DHT22;31071;51.478;5.710;2022-10-16T03:55:07;12.70;99.90
45339;DHT22;31071;51.478;5.710;2022-10-16T03:57:33;12.70;99.90
45339;DHT22;31071;51.478;5.710;2022-10-16T03:59:59;12.70;99.90
45339;DHT22;31071;51.478;5.710;2022-10-16T04:02:24;12.80;99.90
45339;DHT22;31071;51.478;5.710;2022-10-16T04:04:50;12.80;99.90
45339;DHT22;31071;51.478;5.710;2022-10-16T04:07:16;12.80;99.90
45339;DHT22;31071;51.478;5.710;2022-10-16T04:09:41;12.80;99.90
45339;DHT22;31071;51.478;5.710;2022-10-16T04:12:07;12.80;99.90
45339;DHT22;31071;51.478;5.710;2022-10-16T04:14:32;12.80;99.90
45339;DHT22;31071;51.478;5.710;2022-10-16T04:16:58;12.80;99.90
45339;DHT22;31071;51.478;5.710;2022-10-16T04:19:23;12.80;99.90
45339;DHT22;31071;51.478;5.710;2022-10-16T04:21:49;12.80;99.90
45339;DHT22;31071;51.478;5.710;2022-10-16T04:24:15;12.80;99.90
45339;DHT22;31071;51.478;5.710;2022-10-16T04:26:40;12.80;99.90
45339;DHT22;31071;51.478;5.710;2022-10-16T04:29:06;12.80;99.90
45339;DHT22;31071;51.478;5.710;2022-10-16T04:31:32;12.90;99.90
45339;DHT22;31071;51.478;5.710;2022-10-16T04:33:58;12.90;99.90
45339;DHT22;31071;51.478;5.710;2022-10-16T04:36:23;12.90;99.90
45339;DHT22;31071;51.478;5.710;2022-10-16T04:38:49;12.90;99.90
45339;DHT22;31071;51.478;5.710;2022-10-16T04:41:14;12.90;99.90
45339;DHT22;31071;51.478;5.710;2022-10-16T04:43:40;12.90;99.90
45339;DHT22;31071;51.478;5.710;2022-10-16T04:46:05;13.00;99.90
45339;DHT22;31071;51.478;5.710;2022-10-16T04:48:31;13.00;99.90
45339;DHT22;31071;51.478;5.710;2022-10-16T04:51:05;12.90;99.90
45339;DHT22;31071;51.478;5.710;2022-10-16T04:53:31;13.00;99.90
45339;DHT22;31071;51.478;5.710;2022-10-16T04:55:56;12.90;99.90
45339;DHT22;31071;51.478;5.710;2022-10-16T04:58:22;12.80;99.90
45339;DHT22;31071;51.478;5.710;2022-10-16T05:00:48;12.90;99.90
45339;DHT22;31071;51.478;5.710;2022-10-16T05:03:13;12.90;99.90
45339;DHT22;31071;51.478;5.710;2022-10-16T05:05:43;12.90;99.90
45339;DHT22;31071;51.478;5.710;2022-10-16T05:08:10;13.00;99.90
45339;DHT22;31071;51.478;5.710;2022-10-16T05:10:35;12.90;99.90
45339;DHT22;31071;51.478;5.710;2022-10-16T05:13:01;12.90;99.90
45339;DHT22;31071;51.478;5.710;2022-10-16T05:15:26;12.90;99.90
45339;DHT22;31071;51.478;5.710;2022-10-16T05:17:53;13.00;99.90
45339;DHT22;31071;51.478;5.710;2022-10-16T05:20:19;13.00;99.90
45339;DHT22;31071;51.478;5.710;2022-10-16T05:22:44;13.00;99.90
45339;DHT22;31071;51.478;5.710;2022-10-16T05:25:11;13.00;99.90
45339;DHT22;31071;51.478;5.710;2022-10-16T05:27:36;13.00;99.90
45339;DHT22;31071;51.478;5.710;2022-10-16T05:30:02;12.90;99.90
45339;DHT22;31071;51.478;5.710;2022-10-16T05:32:28;12.90;99.90
45339;DHT22;31071;51.478;5.710;2022-10-16T05:34:53;12.80;99.90
45339;DHT22;31071;51.478;5.710;2022-10-16T05:37:19;12.80;99.90
45339;DHT22;31071;51.478;5.710;2022-10-16T05:39:44;12.80;99.90
45339;DHT22;31071;51.478;5.710;2022-10-16T05:42:10;12.80;99.90
45339;DHT22;31071;51.478;5.710;2022-10-16T05:44:38;12.80;99.90
45339;DHT22;31071;51.478;5.710;2022-10-16T05:47:04;12.80;99.90
45339;DHT22;31071;51.478;5.710;2022-10-16T05:49:30;12.80;99.90
45339;DHT22;31071;51.478;5.710;2022-10-16T05:51:55;12.70;99.90
45339;DHT22;31071;51.478;5.710;2022-10-16T05:54:21;12.70;99.90
45339;DHT22;31071;51.478;5.710;2022-10-16T05:56:46;12.70;99.90
45339;DHT22;31071;51.478;5.710;2022-10-16T05:59:12;12.70;99.90
45339;DHT22;31071;51.478;5.710;2022-10-16T06:01:37;12.60;99.90
45339;DHT22;31071;51.478;5.710;2022-10-16T06:04:03;12.70;99.90
45339;DHT22;31071;51.478;5.710;2022-10-16T06:06:28;12.60;99.90
45339;DHT22;31071;51.478;5.710;2022-10-16T06:08:56;12.50;99.90
45339;DHT22;31071;51.478;5.710;2022-10-16T06:11:24;12.60;99.90
45339;DHT22;31071;51.478;5.710;2022-10-16T06:13:55;12.60;99.90
45339;DHT22;31071;51.478;5.710;2022-10-16T06:16:22;12.60;99.90
45339;DHT22;31071;51.478;5.710;2022-10-16T06:18:50;12.60;99.90
45339;DHT22;31071;51.478;5.710;2022-10-16T06:21:19;12.60;99.90
45339;DHT22;31071;51.478;5.710;2022-10-16T06:23:46;12.60;99.90
45339;DHT22;31071;51.478;5.710;2022-10-16T06:26:14;12.60;99.90
45339;DHT22;31071;51.478;5.710;2022-10-16T06:28:40;12.60;99.90
45339;DHT22;31071;51.478;5.710;2022-10-16T06:31:07;12.70;99.90
45339;DHT22;31071;51.478;5.710;2022-10-16T06:33:33;12.70;99.90
45339;DHT22;31071;51.478;5.710;2022-10-16T06:36:06;12.60;99.90
45339;DHT22;31071;51.478;5.710;2022-10-16T06:38:33;12.60;99.90
45339;DHT22;31071;51.478;5.710;2022-10-16T06:40:59;12.70;99.90
45339;DHT22;31071;51.478;5.710;2022-10-16T06:43:25;12.70;99.90
45339;DHT22;31071;51.478;5.710;2022-10-16T06:45:55;12.70;99.90
45339;DHT22;31071;51.478;5.710;2022-10-16T06:48:21;12.70;99.90
45339;DHT22;31071;51.478;5.710;2022-10-16T06:51:10;12.70;99.90
45339;DHT22;31071;51.478;5.710;2022-10-16T06:53:39;12.70;99.90
45339;DHT22;31071;51.478;5.710;2022-10-16T06:56:09;12.70;99.90
45339;DHT22;31071;51.478;5.710;2022-10-16T06:58:35;12.70;99.90
45339;DHT22;31071;51.478;5.710;2022-10-16T07:01:01;12.80;99.90
45339;DHT22;31071;51.478;5.710;2022-10-16T07:03:27;12.80;99.90
45339;DHT22;31071;51.478;5.710;2022-10-16T07:05:53;12.80;99.90
45339;DHT22;31071;51.478;5.710;2022-10-16T07:08:18;12.90;99.90
45339;DHT22;31071;51.478;5.710;2022-10-16T07:10:44;12.90;99.90
45339;DHT22;31071;51.478;5.710;2022-10-16T07:13:09;13.00;99.90
45339;DHT22;31071;51.478;5.710;2022-10-16T07:15:41;13.00;99.90
45339;DHT22;31071;51.478;5.710;2022-10-16T07:18:07;13.20;99.90
45339;DHT22;31071;51.478;5.710;2022-10-16T07:20:33;13.20;99.90
45339;DHT22;31071;51.478;5.710;2022-10-16T07:22:58;13.20;99.90
45339;DHT22;31071;51.478;5.710;2022-10-16T07:25:24;13.30;99.90
45339;DHT22;31071;51.478;5.710;2022-10-16T07:27:49;13.30;99.90
45339;DHT22;31071;51.478;5.710;2022-10-16T07:30:15;13.40;99.90
45339;DHT22;31071;51.478;5.710;2022-10-16T07:32:41;13.40;99.90
45339;DHT22;31071;51.478;5.710;2022-10-16T07:35:09;13.50;99.90
45339;DHT22;31071;51.478;5.710;2022-10-16T07:37:37;13.50;99.90
45339;DHT22;31071;51.478;5.710;2022-10-16T07:42:43;13.70;99.90
45339;DHT22;31071;51.478;5.710;2022-10-16T07:45:10;13.70;99.90
45339;DHT22;31071;51.478;5.710;2022-10-16T07:47:37;13.80;99.90
45339;DHT22;31071;51.478;5.710;2022-10-16T07:50:04;13.80;99.90
45339;DHT22;31071;51.478;5.710;2022-10-16T07:52:31;13.90;99.90
45339;DHT22;31071;51.478;5.710;2022-10-16T07:54:57;14.00;99.90
45339;DHT22;31071;51.478;5.710;2022-10-16T07:57:23;14.00;99.90
45339;DHT22;31071;51.478;5.710;2022-10-16T07:59:51;14.20;99.90
45339;DHT22;31071;51.478;5.710;2022-10-16T08:02:16;14.20;99.90
45339;DHT22;31071;51.478;5.710;2022-10-16T08:04:42;14.30;99.90
45339;DHT22;31071;51.478;5.710;2022-10-16T08:07:08;14.40;99.90
45339;DHT22;31071;51.478;5.710;2022-10-16T08:09:34;14.50;99.90
45339;DHT22;31071;51.478;5.710;2022-10-16T08:11:59;14.60;99.90
45339;DHT22;31071;51.478;5.710;2022-10-16T08:14:32;14.60;99.90
45339;DHT22;31071;51.478;5.710;2022-10-16T08:16:57;14.80;99.90
45339;DHT22;31071;51.478;5.710;2022-10-16T08:19:23;14.80;99.90
45339;DHT22;31071;51.478;5.710;2022-10-16T08:21:49;14.90;99.90
45339;DHT22;31071;51.478;5.710;2022-10-16T08:24:15;15.10;99.90
45339;DHT22;31071;51.478;5.710;2022-10-16T08:26:41;15.20;99.90
45339;DHT22;31071;51.478;5.710;2022-10-16T08:29:16;15.40;99.90
45339;DHT22;31071;51.478;5.710;2022-10-16T08:31:42;15.70;99.90
45339;DHT22;31071;51.478;5.710;2022-10-16T08:34:09;15.90;99.90
45339;DHT22;31071;51.478;5.710;2022-10-16T08:36:35;16.40;99.90
45339;DHT22;31071;51.478;5.710;2022-10-16T08:39:00;17.00;99.90
45339;DHT22;31071;51.478;5.710;2022-10-16T08:49:37;18.30;99.90
45339;DHT22;31071;51.478;5.710;2022-10-16T08:52:11;18.00;99.90
45339;DHT22;31071;51.478;5.710;2022-10-16T08:54:42;18.00;99.90
45339;DHT22;31071;51.478;5.710;2022-10-16T08:57:31;17.80;99.90
45339;DHT22;31071;51.478;5.710;2022-10-16T09:00:00;18.00;99.90
45339;DHT22;31071;51.478;5.710;2022-10-16T09:10:59;19.90;99.90
45339;DHT22;31071;51.478;5.710;2022-10-16T09:13:53;20.70;99.90
45339;DHT22;31071;51.478;5.710;2022-10-16T09:16:34;20.80;99.90
45339;DHT22;31071;51.478;5.710;2022-10-16T09:19:09;21.30;99.90
45339;DHT22;31071;51.478;5.710;2022-10-16T09:21:43;22.00;98.50
45339;DHT22;31071;51.478;5.710;2022-10-16T09:24:19;22.60;97.40
45339;DHT22;31071;51.478;5.710;2022-10-16T09:26:46;23.50;96.00
45339;DHT22;31071;51.478;5.710;2022-10-16T09:29:17;23.40;94.10
45339;DHT22;31071;51.478;5.710;2022-10-16T09:31:45;23.00;95.30
45339;DHT22;31071;51.478;5.710;2022-10-16T09:34:26;22.70;94.10
45339;DHT22;31071;51.478;5.710;2022-10-16T09:36:52;22.40;94.90
45339;DHT22;31071;51.478;5.710;2022-10-16T09:39:18;22.30;95.60
45339;DHT22;31071;51.478;5.710;2022-10-16T09:41:45;22.40;95.40
45339;DHT22;31071;51.478;5.710;2022-10-16T09:44:24;22.20;95.40
45339;DHT22;31071;51.478;5.710;2022-10-16T09:47:05;21.60;96.30
45339;DHT22;31071;51.478;5.710;2022-10-16T09:49:31;21.10;97.60
45339;DHT22;31071;51.478;5.710;2022-10-16T09:52:13;20.90;97.30
45339;DHT22;31071;51.478;5.710;2022-10-16T09:54:52;21.10;97.30
45339;DHT22;31071;51.478;5.710;2022-10-16T09:57:19;21.30;97.00
45339;DHT22;31071;51.478;5.710;2022-10-16T09:59:53;22.10;95.10
45339;DHT22;31071;51.478;5.710;2022-10-16T10:02:30;22.90;94.80
45339;DHT22;31071;51.478;5.710;2022-10-16T10:04:56;23.00;94.20
45339;DHT22;31071;51.478;5.710;2022-10-16T10:07:28;22.40;95.00
45339;DHT22;31071;51.478;5.710;2022-10-16T10:09:57;22.40;93.90
45339;DHT22;31071;51.478;5.710;2022-10-16T10:12:27;22.20;94.30
45339;DHT22;31071;51.478;5.710;2022-10-16T10:14:56;23.10;93.20
45339;DHT22;31071;51.478;5.710;2022-10-16T10:17:27;23.10;92.70
45339;DHT22;31071;51.478;5.710;2022-10-16T10:20:18;22.60;92.50
45339;DHT22;31071;51.478;5.710;2022-10-16T10:22:46;23.60;92.20
45339;DHT22;31071;51.478;5.710;2022-10-16T10:30:10;25.30;86.90
45339;DHT22;31071;51.478;5.710;2022-10-16T10:32:45;24.50;88.20
45339;DHT22;31071;51.478;5.710;2022-10-16T10:35:14;23.00;91.10
45339;DHT22;31071;51.478;5.710;2022-10-16T10:40:24;24.40;88.50
45339;DHT22;31071;51.478;5.710;2022-10-16T10:43:01;25.00;87.30
45339;DHT22;31071;51.478;5.710;2022-10-16T10:45:43;25.70;84.40
45339;DHT22;31071;51.478;5.710;2022-10-16T10:48:24;24.90;86.10
45339;DHT22;31071;51.478;5.710;2022-10-16T10:50:57;25.80;85.20
45339;DHT22;31071;51.478;5.710;2022-10-16T10:56:34;25.50;83.70
45339;DHT22;31071;51.478;5.710;2022-10-16T10:59:45;25.00;84.00
45339;DHT22;31071;51.478;5.710;2022-10-16T11:05:25;24.90;83.00
45339;DHT22;31071;51.478;5.710;2022-10-16T11:08:17;23.20;86.60
45339;DHT22;31071;51.478;5.710;2022-10-16T11:10:53;23.40;88.00
45339;DHT22;31071;51.478;5.710;2022-10-16T11:14:25;22.70;87.60
45339;DHT22;31071;51.478;5.710;2022-10-16T11:16:34;22.40;90.60
45339;DHT22;31071;51.478;5.710;2022-10-16T11:19:15;21.90;91.20
45339;DHT22;31071;51.478;5.710;2022-10-16T11:22:00;21.10;92.50
45339;DHT22;31071;51.478;5.710;2022-10-16T11:27:17;20.20;93.80
45339;DHT22;31071;51.478;5.710;2022-10-16T11:30:16;19.90;94.40
45339;DHT22;31071;51.478;5.710;2022-10-16T11:35:55;22.20;91.60
45339;DHT22;31071;51.478;5.710;2022-10-16T11:38:41;22.00;91.10
45339;DHT22;31071;51.478;5.710;2022-10-16T11:41:22;21.40;92.10
45339;DHT22;31071;51.478;5.710;2022-10-16T11:46:21;22.30;91.40
45339;DHT22;31071;51.478;5.710;2022-10-16T11:49:12;22.30;90.70
45339;DHT22;31071;51.478;5.710;2022-10-16T11:54:54;21.80;92.00
45339;DHT22;31071;51.478;5.710;2022-10-16T11:57:27;22.10;91.90
45339;DHT22;31071;51.478;5.710;2022-10-16T12:00:20;22.60;91.20
45339;DHT22;31071;51.478;5.710;2022-10-16T12:02:55;23.70;88.40
45339;DHT22;31071;51.478;5.710;2022-10-16T12:05:50;24.20;86.00
45339;DHT22;31071;51.478;5.710;2022-10-16T12:08:18;25.40;82.30
45339;DHT22;31071;51.478;5.710;2022-10-16T12:10:46;26.00;78.30
45339;DHT22;31071;51.478;5.710;2022-10-16T12:13:35;25.80;79.20
45339;DHT22;31071;51.478;5.710;2022-10-16T12:16:27;25.00;79.80
45339;DHT22;31071;51.478;5.710;2022-10-16T12:19:13;23.60;81.60
45339;DHT22;31071;51.478;5.710;2022-10-16T12:21:39;22.40;86.00
45339;DHT22;31071;51.478;5.710;2022-10-16T12:24:05;21.50;88.50
45339;DHT22;31071;51.478;5.710;2022-10-16T12:26:37;21.00;90.00
45339;DHT22;31071;51.478;5.710;2022-10-16T12:29:31;20.80;90.90
45339;DHT22;31071;51.478;5.710;2022-10-16T12:31:58;20.90;91.30
45339;DHT22;31071;51.478;5.710;2022-10-16T12:34:38;21.00;91.50
45339;DHT22;31071;51.478;5.710;2022-10-16T12:37:29;21.00;91.00
45339;DHT22;31071;51.478;5.710;2022-10-16T12:39:56;21.40;91.30
45339;DHT22;31071;51.478;5.710;2022-10-16T12:42:32;21.60;90.70
45339;DHT22;31071;51.478;5.710;2022-10-16T12:44:59;21.50;91.20
45339;DHT22;31071;51.478;5.710;2022-10-16T12:49:59;21.40;91.70
45339;DHT22;31071;51.478;5.710;2022-10-16T12:52:36;21.50;91.80
45339;DHT22;31071;51.478;5.710;2022-10-16T12:55:03;21.90;91.10
45339;DHT22;31071;51.478;5.710;2022-10-16T13:06:27;21.60;91.30
45339;DHT22;31071;51.478;5.710;2022-10-16T13:17:01;21.00;93.10
45339;DHT22;31071;51.478;5.710;2022-10-16T13:19:48;22.70;90.70
45339;DHT22;31071;51.478;5.710;2022-10-16T13:22:27;23.50;87.20
45339;DHT22;31071;51.478;5.710;2022-10-16T13:28:04;23.40;86.50
45339;DHT22;31071;51.478;5.710;2022-10-16T13:30:44;23.10;88.30
45339;DHT22;31071;51.478;5.710;2022-10-16T13:33:37;22.90;90.00
45339;DHT22;31071;51.478;5.710;2022-10-16T13:36:05;22.60;89.80
45339;DHT22;31071;51.478;5.710;2022-10-16T13:38:33;21.90;90.10
45339;DHT22;31071;51.478;5.710;2022-10-16T13:41:14;21.60;90.80
45339;DHT22;31071;51.478;5.710;2022-10-16T13:43:54;21.40;91.70
45339;DHT22;31071;51.478;5.710;2022-10-16T13:46:23;21.10;91.80
45339;DHT22;31071;51.478;5.710;2022-10-16T13:49:00;20.90;92.20
45339;DHT22;31071;51.478;5.710;2022-10-16T13:51:26;20.70;92.10
45339;DHT22;31071;51.478;5.710;2022-10-16T13:53:55;20.50;92.80
45339;DHT22;31071;51.478;5.710;2022-10-16T13:56:22;20.60;92.70
45339;DHT22;31071;51.478;5.710;2022-10-16T13:59:01;20.50;93.20
45339;DHT22;31071;51.478;5.710;2022-10-16T14:01:41;20.10;93.80
45339;DHT22;31071;51.478;5.710;2022-10-16T14:04:11;20.00;94.20
45339;DHT22;31071;51.478;5.710;2022-10-16T14:06:44;19.80;94.50
45339;DHT22;31071;51.478;5.710;2022-10-16T14:09:21;19.80;94.60
45339;DHT22;31071;51.478;5.710;2022-10-16T14:11:50;19.60;95.10
45339;DHT22;31071;51.478;5.710;2022-10-16T14:14:17;19.50;95.60
45339;DHT22;31071;51.478;5.710;2022-10-16T14:16:43;19.40;96.30
45339;DHT22;31071;51.478;5.710;2022-10-16T14:19:35;19.30;96.30
45339;DHT22;31071;51.478;5.710;2022-10-16T14:22:02;19.20;97.00
45339;DHT22;31071;51.478;5.710;2022-10-16T14:24:31;19.10;97.50
45339;DHT22;31071;51.478;5.710;2022-10-16T14:26:58;19.10;97.30
45339;DHT22;31071;51.478;5.710;2022-10-16T14:29:26;19.10;98.30
45339;DHT22;31071;51.478;5.710;2022-10-16T14:32:03;19.10;97.90
45339;DHT22;31071;51.478;5.710;2022-10-16T14:34:36;19.10;98.30
45339;DHT22;31071;51.478;5.710;2022-10-16T14:37:24;19.10;99.00
45339;DHT22;31071;51.478;5.710;2022-10-16T14:39:51;19.10;98.30
45339;DHT22;31071;51.478;5.710;2022-10-16T14:42:19;19.10;98.80
45339;DHT22;31071;51.478;5.710;2022-10-16T14:44:46;19.10;98.80
45339;DHT22;31071;51.478;5.710;2022-10-16T14:47:17;19.00;99.50
45339;DHT22;31071;51.478;5.710;2022-10-16T14:49:47;19.10;99.50
45339;DHT22;31071;51.478;5.710;2022-10-16T14:52:14;19.10;99.50
45339;DHT22;31071;51.478;5.710;2022-10-16T14:54:41;19.30;99.50
45339;DHT22;31071;51.478;5.710;2022-10-16T14:57:19;19.40;98.90
45339;DHT22;31071;51.478;5.710;2022-10-16T14:59:46;19.40;98.10
45339;DHT22;31071;51.478;5.710;2022-10-16T15:02:28;19.40;98.80
45339;DHT22;31071;51.478;5.710;2022-10-16T15:04:57;19.50;98.80
45339;DHT22;31071;51.478;5.710;2022-10-16T15:07:24;19.30;99.80
45339;DHT22;31071;51.478;5.710;2022-10-16T15:09:50;19.30;99.10
45339;DHT22;31071;51.478;5.710;2022-10-16T15:12:16;19.30;98.90
45339;DHT22;31071;51.478;5.710;2022-10-16T15:14:42;19.30;99.00
45339;DHT22;31071;51.478;5.710;2022-10-16T15:17:11;19.30;98.90
45339;DHT22;31071;51.478;5.710;2022-10-16T15:19:37;19.20;98.80
45339;DHT22;31071;51.478;5.710;2022-10-16T15:22:02;19.10;99.60
45339;DHT22;31071;51.478;5.710;2022-10-16T15:24:28;19.10;99.60
45339;DHT22;31071;51.478;5.710;2022-10-16T15:26:54;19.10;99.60
45339;DHT22;31071;51.478;5.710;2022-10-16T15:29:20;19.10;99.40
45339;DHT22;31071;51.478;5.710;2022-10-16T15:31:45;18.90;99.50
45339;DHT22;31071;51.478;5.710;2022-10-16T15:34:13;18.90;99.90
45339;DHT22;31071;51.478;5.710;2022-10-16T15:36:39;18.90;99.80
45339;DHT22;31071;51.478;5.710;2022-10-16T15:39:24;18.70;99.90
45339;DHT22;31071;51.478;5.710;2022-10-16T15:41:49;18.70;99.90
45339;DHT22;31071;51.478;5.710;2022-10-16T15:44:19;18.60;99.90
45339;DHT22;31071;51.478;5.710;2022-10-16T15:46:46;18.60;99.90
45339;DHT22;31071;51.478;5.710;2022-10-16T15:49:12;18.40;99.90
45339;DHT22;31071;51.478;5.710;2022-10-16T15:51:39;18.50;99.90
45339;DHT22;31071;51.478;5.710;2022-10-16T15:54:05;18.20;99.90
45339;DHT22;31071;51.478;5.710;2022-10-16T15:56:31;18.10;99.90
45339;DHT22;31071;51.478;5.710;2022-10-16T15:58:59;18.10;99.90
45339;DHT22;31071;51.478;5.710;2022-10-16T16:01:26;18.00;99.90
45339;DHT22;31071;51.478;5.710;2022-10-16T16:03:55;17.90;99.90
45339;DHT22;31071;51.478;5.710;2022-10-16T16:06:21;17.90;99.90
45339;DHT22;31071;51.478;5.710;2022-10-16T16:08:47;17.90;99.90
45339;DHT22;31071;51.478;5.710;2022-10-16T16:11:14;17.80;99.90
45339;DHT22;31071;51.478;5.710;2022-10-16T16:13:40;17.60;99.90
45339;DHT22;31071;51.478;5.710;2022-10-16T16:16:08;17.50;99.90
45339;DHT22;31071;51.478;5.710;2022-10-16T16:18:34;17.30;99.90
45339;DHT22;31071;51.478;5.710;2022-10-16T16:20:59;17.30;99.90
45339;DHT22;31071;51.478;5.710;2022-10-16T16:23:25;17.10;99.90
45339;DHT22;31071;51.478;5.710;2022-10-16T16:26:27;16.90;99.90
45339;DHT22;31071;51.478;5.710;2022-10-16T16:28:52;16.90;99.90
45339;DHT22;31071;51.478;5.710;2022-10-16T16:31:18;16.70;99.90
45339;DHT22;31071;51.478;5.710;2022-10-16T16:33:44;16.50;99.90
45339;DHT22;31071;51.478;5.710;2022-10-16T16:36:09;16.50;99.90
45339;DHT22;31071;51.478;5.710;2022-10-16T16:38:35;16.40;99.90
45339;DHT22;31071;51.478;5.710;2022-10-16T16:41:15;16.50;99.90
45339;DHT22;31071;51.478;5.710;2022-10-16T16:43:41;16.20;99.90
45339;DHT22;31071;51.478;5.710;2022-10-16T16:46:06;16.00;99.90
45339;DHT22;31071;51.478;5.710;2022-10-16T16:48:32;15.90;99.90
45339;DHT22;31071;51.478;5.710;2022-10-16T16:51:04;15.80;99.90
45339;DHT22;31071;51.478;5.710;2022-10-16T16:53:30;15.80;99.90
45339;DHT22;31071;51.478;5.710;2022-10-16T16:56:04;15.80;99.90
45339;DHT22;31071;51.478;5.710;2022-10-16T16:58:30;15.80;99.90
45339;DHT22;31071;51.478;5.710;2022-10-16T17:00:56;15.70;99.90
45339;DHT22;31071;51.478;5.710;2022-10-16T17:03:21;15.70;99.90